createdAt,value
2023-05-09T00:01:13.193Z,17.10
2023-05-09T00:03:43.261Z,17.00
2023-05-09T00:06:11.698Z,16.90
2023-05-09T00:08:39.112Z,16.90
2023-05-09T00:11:06.463Z,16.90
2023-05-09T00:13:34.850Z,16.80
2023-05-09T00:16:02.530Z,16.80
2023-05-09T00:18:31.371Z,16.80
2023-05-09T00:20:58.870Z,16.70
2023-05-09T00:23:26.174Z,16.80
2023-05-09T00:25:53.501Z,16.80
2023-05-09T00:28:20.935Z,16.80
2023-05-09T00:30:48.226Z,16.80
2023-05-09T00:33:15.550Z,16.80
2023-05-09T00:35:42.834Z,16.80
2023-05-09T00:38:10.227Z,16.80
2023-05-09T00:40:37.504Z,16.80
2023-05-09T00:43:05.285Z,16.70
2023-05-09T00:45:32.594Z,16.70
2023-05-09T00:48:00.193Z,16.70
2023-05-09T00:50:27.655Z,16.70
2023-05-09T00:52:55.278Z,16.60
2023-05-09T00:55:23.426Z,16.60
2023-05-09T00:57:51.027Z,16.70
2023-05-09T01:00:19.066Z,16.70
2023-05-09T01:02:55.282Z,16.60
2023-05-09T01:05:30.069Z,16.60
2023-05-09T01:08:10.559Z,16.60
2023-05-09T01:11:01.434Z,16.60
2023-05-09T01:13:54.679Z,16.60
2023-05-09T01:16:41.064Z,16.60
2023-05-09T01:19:38.730Z,16.50
2023-05-09T01:22:11.656Z,16.50
2023-05-09T01:25:07.459Z,16.50
2023-05-09T01:27:47.148Z,16.50
2023-05-09T01:30:17.057Z,16.60
2023-05-09T01:32:50.447Z,16.50
2023-05-09T01:35:18.479Z,16.50
2023-05-09T01:37:50.693Z,16.50
2023-05-09T01:40:21.712Z,16.50
2023-05-09T01:43:05.914Z,16.50
2023-05-09T01:45:34.487Z,16.50
2023-05-09T01:48:02.816Z,16.50
2023-05-09T01:50:30.906Z,16.50
2023-05-09T01:52:59.821Z,16.50
2023-05-09T01:55:29.135Z,16.40
2023-05-09T01:57:58.900Z,16.40
2023-05-09T02:00:27.247Z,16.30
2023-05-09T02:02:55.973Z,16.30
2023-05-09T02:05:27.641Z,16.30
2023-05-09T02:07:58.619Z,16.20
2023-05-09T02:10:28.322Z,16.20
2023-05-09T02:12:56.806Z,16.20
2023-05-09T02:15:24.796Z,16.20
2023-05-09T02:17:52.410Z,16.10
2023-05-09T02:20:19.869Z,16.10
2023-05-09T02:22:48.013Z,16.10
2023-05-09T02:25:15.862Z,16.00
2023-05-09T02:27:45.775Z,16.00
2023-05-09T02:30:18.951Z,16.00
2023-05-09T02:32:49.225Z,15.90
2023-05-09T02:35:18.573Z,15.90
2023-05-09T02:37:47.667Z,15.90
2023-05-09T02:40:15.050Z,15.90
2023-05-09T02:42:42.448Z,15.80
2023-05-09T02:45:11.245Z,15.80
2023-05-09T02:47:40.224Z,15.80
2023-05-09T02:50:08.106Z,15.80
2023-05-09T02:52:37.481Z,15.80
2023-05-09T02:55:05.892Z,15.80
2023-05-09T02:57:36.680Z,15.70
2023-05-09T03:00:09.694Z,15.70
2023-05-09T03:02:37.923Z,15.60
2023-05-09T03:05:08.740Z,15.60
2023-05-09T03:07:37.030Z,15.60
2023-05-09T03:10:04.884Z,15.60
2023-05-09T03:12:32.421Z,15.60
2023-05-09T03:14:59.625Z,15.50
2023-05-09T03:17:27.867Z,15.50
2023-05-09T03:19:55.952Z,15.50
2023-05-09T03:22:29.066Z,15.50
2023-05-09T03:25:01.677Z,15.50
2023-05-09T03:27:29.062Z,15.50
2023-05-09T03:29:56.573Z,15.50
2023-05-09T03:32:24.021Z,15.50
2023-05-09T03:34:51.273Z,15.50
2023-05-09T03:37:18.655Z,15.50
2023-05-09T03:39:46.061Z,15.50
2023-05-09T03:42:13.606Z,15.50
2023-05-09T03:44:42.561Z,15.50
2023-05-09T03:47:10.027Z,15.50
2023-05-09T03:49:40.238Z,15.50
2023-05-09T03:52:09.221Z,15.60
2023-05-09T03:54:37.274Z,15.60
2023-05-09T03:57:05.944Z,15.60
2023-05-09T03:59:33.811Z,15.70
2023-05-09T04:02:02.188Z,15.70
2023-05-09T04:04:30.402Z,15.70
2023-05-09T04:06:57.984Z,15.80
2023-05-09T04:09:26.220Z,15.80
2023-05-09T04:11:55.187Z,15.80
2023-05-09T04:14:22.516Z,15.80
2023-05-09T04:16:49.916Z,15.90
2023-05-09T04:19:17.538Z,15.90
2023-05-09T04:21:44.896Z,16.00
2023-05-09T04:24:12.281Z,16.00
2023-05-09T04:26:43.499Z,16.00
2023-05-09T04:29:14.496Z,16.00
2023-05-09T04:31:44.687Z,16.00
2023-05-09T04:34:14.031Z,16.00
2023-05-09T04:36:41.815Z,16.00
2023-05-09T04:39:10.527Z,16.00
2023-05-09T04:41:40.354Z,16.00
2023-05-09T04:44:08.183Z,16.00
2023-05-09T04:46:35.514Z,16.00
2023-05-09T04:49:03.250Z,16.00
2023-05-09T04:51:30.679Z,16.00
2023-05-09T04:53:58.070Z,16.00
2023-05-09T04:56:31.258Z,16.10
2023-05-09T04:59:01.026Z,16.10
2023-05-09T05:01:29.469Z,16.10
2023-05-09T05:03:57.701Z,16.10
2023-05-09T05:06:25.044Z,16.10
2023-05-09T05:08:52.368Z,16.10
2023-05-09T05:11:20.743Z,16.10
2023-05-09T05:13:48.335Z,16.10
2023-05-09T05:16:16.129Z,16.10
2023-05-09T05:18:44.146Z,16.20
2023-05-09T05:21:11.930Z,16.20
2023-05-09T05:23:39.390Z,16.20
2023-05-09T05:26:06.903Z,16.20
2023-05-09T05:28:36.039Z,16.30
2023-05-09T05:31:04.493Z,16.30
2023-05-09T05:33:33.020Z,16.40
2023-05-09T05:36:01.362Z,16.40
2023-05-09T05:38:28.739Z,16.40
2023-05-09T05:40:57.766Z,16.40
2023-05-09T05:43:26.474Z,16.50
2023-05-09T05:45:54.351Z,16.50
2023-05-09T05:48:23.938Z,16.50
2023-05-09T05:50:53.108Z,16.50
2023-05-09T05:53:27.083Z,16.60
2023-05-09T05:55:54.542Z,16.70
2023-05-09T05:58:22.050Z,16.70
2023-05-09T06:00:51.436Z,16.80
2023-05-09T06:03:18.794Z,16.80
2023-05-09T06:05:58.485Z,16.80
2023-05-09T06:08:26.925Z,16.90
2023-05-09T06:10:54.547Z,16.80
2023-05-09T06:13:22.022Z,16.80
2023-05-09T06:16:01.916Z,16.90
2023-05-09T06:18:40.332Z,16.90
2023-05-09T06:21:08.105Z,16.90
2023-05-09T06:23:38.068Z,17.00
2023-05-09T06:26:07.776Z,17.00
2023-05-09T06:28:35.159Z,17.00
2023-05-09T06:31:02.556Z,17.10
2023-05-09T06:33:29.898Z,17.20
2023-05-09T06:35:57.280Z,17.20
2023-05-09T06:38:24.535Z,17.20
2023-05-09T06:40:51.782Z,17.20
2023-05-09T06:43:19.091Z,17.30
2023-05-09T06:45:46.419Z,17.20
2023-05-09T06:48:13.684Z,17.20
2023-05-09T06:50:41.144Z,17.10
2023-05-09T06:53:08.804Z,17.10
2023-05-09T06:55:36.358Z,17.10
2023-05-09T06:58:04.056Z,17.20
2023-05-09T07:00:31.323Z,17.20
2023-05-09T07:02:58.810Z,17.30
2023-05-09T07:05:26.350Z,17.40
2023-05-09T07:07:55.238Z,17.50
2023-05-09T07:10:23.061Z,17.60
2023-05-09T07:12:51.106Z,17.70
2023-05-09T07:15:32.502Z,17.80
2023-05-09T07:18:06.558Z,17.90
2023-05-09T07:20:34.136Z,17.90
2023-05-09T07:23:03.694Z,17.90
2023-05-09T07:25:31.096Z,18.10
2023-05-09T07:27:58.583Z,18.20
2023-05-09T07:30:26.125Z,18.30
2023-05-09T07:32:53.562Z,18.40
2023-05-09T07:35:21.493Z,18.50
2023-05-09T07:37:48.826Z,18.50
2023-05-09T07:40:16.938Z,18.50
2023-05-09T07:42:50.167Z,18.60
2023-05-09T07:45:19.420Z,18.60
2023-05-09T07:47:47.964Z,18.40
2023-05-09T07:50:15.459Z,18.40
2023-05-09T07:52:42.825Z,18.50
2023-05-09T07:55:10.339Z,18.60
2023-05-09T07:57:38.816Z,18.60
2023-05-09T08:00:07.204Z,18.60
2023-05-09T08:02:40.846Z,18.90
2023-05-09T08:05:09.385Z,19.10
2023-05-09T08:07:40.061Z,19.30
2023-05-09T08:10:08.644Z,19.30
2023-05-09T08:12:35.939Z,19.20
2023-05-09T08:15:03.494Z,19.20
2023-05-09T08:17:30.957Z,19.20
2023-05-09T08:19:58.239Z,19.20
2023-05-09T08:22:25.668Z,19.40
2023-05-09T08:24:52.984Z,19.50
2023-05-09T08:27:20.261Z,19.40
2023-05-09T08:29:47.645Z,19.30
2023-05-09T08:32:14.948Z,19.30
2023-05-09T08:34:42.204Z,19.40
2023-05-09T08:37:09.706Z,19.30
2023-05-09T08:39:37.067Z,19.60
2023-05-09T08:42:04.632Z,19.80
2023-05-09T08:44:32.449Z,19.60
2023-05-09T08:47:04.362Z,19.60
2023-05-09T08:49:31.945Z,20.10
2023-05-09T08:51:59.934Z,20.20
2023-05-09T08:54:27.912Z,20.10
2023-05-09T08:56:55.508Z,20.40
2023-05-09T08:59:22.939Z,20.70
2023-05-09T09:01:51.124Z,20.70
2023-05-09T09:04:18.363Z,20.60
2023-05-09T09:06:46.475Z,20.60
2023-05-09T09:09:15.555Z,20.10
2023-05-09T09:11:43.092Z,19.70
2023-05-09T09:14:18.194Z,19.70
2023-05-09T09:16:49.178Z,19.90
2023-05-09T09:19:18.704Z,20.30
2023-05-09T09:21:47.661Z,20.70
2023-05-09T09:24:18.649Z,21.00
2023-05-09T09:26:50.601Z,20.80
2023-05-09T09:29:19.690Z,20.50
2023-05-09T09:31:48.225Z,20.70
2023-05-09T09:34:22.040Z,20.90
2023-05-09T09:36:49.781Z,20.80
2023-05-09T09:39:16.949Z,20.70
2023-05-09T09:41:46.946Z,20.30
2023-05-09T09:44:23.731Z,20.60
2023-05-09T09:46:56.837Z,21.00
2023-05-09T09:49:25.978Z,21.10
2023-05-09T09:51:57.929Z,20.70
2023-05-09T09:54:28.645Z,20.70
2023-05-09T09:56:57.200Z,21.00
2023-05-09T09:59:26.912Z,21.10
2023-05-09T10:01:57.299Z,21.20
2023-05-09T10:04:25.632Z,21.20
2023-05-09T10:06:57.406Z,20.70
2023-05-09T10:09:25.098Z,20.80
2023-05-09T10:11:53.811Z,20.50
2023-05-09T10:14:23.822Z,20.70
2023-05-09T10:16:54.743Z,21.10
2023-05-09T10:19:23.095Z,20.70
2023-05-09T10:21:58.595Z,20.80
2023-05-09T10:24:35.660Z,21.20
2023-05-09T10:27:09.784Z,21.30
2023-05-09T10:29:41.598Z,21.40
2023-05-09T10:32:32.534Z,20.80
2023-05-09T10:35:06.358Z,20.70
2023-05-09T10:37:34.193Z,20.70
2023-05-09T10:40:05.548Z,20.90
2023-05-09T10:42:32.802Z,21.20
2023-05-09T10:45:01.282Z,21.30
2023-05-09T10:47:29.166Z,21.20
2023-05-09T10:49:57.713Z,20.50
2023-05-09T10:52:24.962Z,20.30
2023-05-09T10:55:04.132Z,20.20
2023-05-09T10:57:32.541Z,20.10
2023-05-09T11:00:03.085Z,20.10
2023-05-09T11:02:32.559Z,20.10
2023-05-09T11:05:20.500Z,20.30
2023-05-09T11:07:48.293Z,20.30
2023-05-09T11:10:18.046Z,20.20
2023-05-09T11:13:01.109Z,19.90
2023-05-09T11:15:29.839Z,19.70
2023-05-09T11:18:13.053Z,19.50
2023-05-09T11:20:45.341Z,19.60
2023-05-09T11:23:34.423Z,19.70
2023-05-09T11:26:07.069Z,19.80
2023-05-09T11:28:37.770Z,19.80
2023-05-09T11:31:16.308Z,20.00
2023-05-09T11:33:47.066Z,20.30
2023-05-09T11:36:31.902Z,20.60
2023-05-09T11:39:07.894Z,20.70
2023-05-09T11:41:52.323Z,20.50
2023-05-09T11:44:21.346Z,20.40
2023-05-09T11:46:49.805Z,20.50
2023-05-09T11:49:17.829Z,20.70
2023-05-09T11:51:45.120Z,20.70
2023-05-09T11:54:15.256Z,20.80
2023-05-09T11:56:42.864Z,20.60
2023-05-09T11:59:13.218Z,20.50
2023-05-09T12:01:47.226Z,20.60
2023-05-09T12:04:14.723Z,20.50
2023-05-09T12:06:48.254Z,20.60
2023-05-09T12:09:16.407Z,20.70
2023-05-09T12:11:50.268Z,21.10
2023-05-09T12:14:31.429Z,21.30
2023-05-09T12:16:58.993Z,21.20
2023-05-09T12:19:27.577Z,21.20
2023-05-09T12:22:02.655Z,20.90
2023-05-09T12:24:31.656Z,20.80
2023-05-09T12:27:00.238Z,20.50
2023-05-09T12:29:27.840Z,20.50
2023-05-09T12:31:58.833Z,20.60
2023-05-09T12:34:26.298Z,21.00
2023-05-09T12:36:53.861Z,21.60
2023-05-09T12:39:23.294Z,22.10
2023-05-09T12:42:01.097Z,22.20
2023-05-09T12:44:30.027Z,22.70
2023-05-09T12:47:06.702Z,23.20
2023-05-09T12:49:37.494Z,24.20
2023-05-09T12:52:05.128Z,24.50
2023-05-09T12:54:33.514Z,24.80
2023-05-09T12:57:01.253Z,25.40
2023-05-09T12:59:29.182Z,25.50
2023-05-09T13:01:58.396Z,25.10
2023-05-09T13:04:29.041Z,23.40
2023-05-09T13:06:58.777Z,22.30
2023-05-09T13:09:30.512Z,22.10
2023-05-09T13:11:57.854Z,21.60
2023-05-09T13:14:25.391Z,21.90
2023-05-09T13:16:52.841Z,22.10
2023-05-09T13:19:20.110Z,22.00
2023-05-09T13:21:48.114Z,21.60
2023-05-09T13:24:15.451Z,21.60
2023-05-09T13:26:42.784Z,21.00
2023-05-09T13:29:10.090Z,20.80
2023-05-09T13:31:37.412Z,21.10
2023-05-09T13:34:04.761Z,21.20
2023-05-09T13:36:32.739Z,21.40
2023-05-09T13:38:59.948Z,21.40
2023-05-09T13:41:27.547Z,21.40
2023-05-09T13:43:54.971Z,21.30
2023-05-09T13:46:22.616Z,21.30
2023-05-09T13:48:50.009Z,21.20
2023-05-09T13:51:17.666Z,21.20
2023-05-09T13:53:45.016Z,21.20
2023-05-09T13:56:12.547Z,21.20
2023-05-09T13:58:39.922Z,21.00
2023-05-09T14:01:07.734Z,20.80
2023-05-09T14:03:35.329Z,20.60
2023-05-09T14:06:02.812Z,20.40
2023-05-09T14:08:30.486Z,20.30
2023-05-09T14:10:57.873Z,20.10
2023-05-09T14:13:25.631Z,20.10
2023-05-09T14:15:53.151Z,20.30
2023-05-09T14:18:21.241Z,20.50
2023-05-09T14:20:48.863Z,20.60
2023-05-09T14:23:16.426Z,20.70
2023-05-09T14:25:43.772Z,20.70
2023-05-09T14:28:11.128Z,20.70
2023-05-09T14:30:38.466Z,20.30
2023-05-09T14:33:05.937Z,20.20
2023-05-09T14:35:34.491Z,20.10
2023-05-09T14:38:02.408Z,20.20
2023-05-09T14:40:32.357Z,20.40
2023-05-09T14:43:02.607Z,20.20
2023-05-09T14:45:31.666Z,20.20
2023-05-09T14:48:05.413Z,20.30
2023-05-09T14:50:33.545Z,20.00
2023-05-09T14:53:01.371Z,20.10
2023-05-09T14:55:28.738Z,20.00
2023-05-09T14:57:56.380Z,20.10
2023-05-09T15:00:26.254Z,20.10
2023-05-09T15:02:53.985Z,20.10
2023-05-09T15:05:21.345Z,20.00
2023-05-09T15:07:48.730Z,19.90
2023-05-09T15:10:16.343Z,20.00
2023-05-09T15:12:44.439Z,20.10
2023-05-09T15:15:25.358Z,20.10
2023-05-09T15:17:53.588Z,20.00
2023-05-09T15:20:21.228Z,20.20
2023-05-09T15:22:49.950Z,20.30
2023-05-09T15:25:17.880Z,20.40
2023-05-09T15:27:45.255Z,20.40
2023-05-09T15:30:13.260Z,20.60
2023-05-09T15:32:41.271Z,20.60
2023-05-09T15:35:08.964Z,20.60
2023-05-09T15:37:36.753Z,20.70
2023-05-09T15:40:04.544Z,20.70
2023-05-09T15:42:31.884Z,20.70
2023-05-09T15:44:59.275Z,20.70
2023-05-09T15:47:26.571Z,20.70
2023-05-09T15:49:54.148Z,20.50
2023-05-09T15:52:21.629Z,20.30
2023-05-09T15:54:49.113Z,20.40
2023-05-09T15:57:17.692Z,20.30
2023-05-09T15:59:45.085Z,20.30
2023-05-09T16:02:12.577Z,20.40
2023-05-09T16:04:39.908Z,20.30
2023-05-09T16:07:08.867Z,20.30
2023-05-09T16:09:37.426Z,20.30
2023-05-09T16:12:05.712Z,20.20
2023-05-09T16:14:33.365Z,20.20
2023-05-09T16:17:03.872Z,20.10
2023-05-09T16:19:31.871Z,20.10
2023-05-09T16:22:00.037Z,20.10
2023-05-09T16:24:27.364Z,20.10
2023-05-09T16:26:54.686Z,20.10
2023-05-09T16:29:23.130Z,20.10
2023-05-09T16:31:50.611Z,20.00
2023-05-09T16:34:19.288Z,20.00
2023-05-09T16:36:47.749Z,20.10
2023-05-09T16:39:23.575Z,20.10
2023-05-09T16:41:52.480Z,20.00
2023-05-09T16:44:20.044Z,20.00
2023-05-09T16:46:47.522Z,20.00
2023-05-09T16:49:18.004Z,20.00
2023-05-09T16:51:45.529Z,19.90
2023-05-09T16:54:13.100Z,19.90
2023-05-09T16:56:40.540Z,19.80
2023-05-09T16:59:08.629Z,19.80
2023-05-09T17:01:35.896Z,19.80
2023-05-09T17:04:06.865Z,19.80
2023-05-09T17:06:35.499Z,19.80
2023-05-09T17:09:04.538Z,19.80
2023-05-09T17:11:32.554Z,19.80
2023-05-09T17:14:01.700Z,19.80
2023-05-09T17:16:29.661Z,19.80
2023-05-09T17:18:59.435Z,19.70
2023-05-09T17:21:26.956Z,19.60
2023-05-09T17:23:54.356Z,19.50
2023-05-09T17:26:26.064Z,19.50
2023-05-09T17:28:53.501Z,19.50
2023-05-09T17:31:20.823Z,19.50
2023-05-09T17:33:48.226Z,19.40
2023-05-09T17:36:15.649Z,19.40
2023-05-09T17:38:43.332Z,19.40
2023-05-09T17:41:10.589Z,19.30
2023-05-09T17:43:38.081Z,19.10
2023-05-09T17:46:05.670Z,19.00
2023-05-09T17:48:33.015Z,19.00
2023-05-09T17:51:00.692Z,18.90
2023-05-09T17:53:28.043Z,18.90
2023-05-09T17:55:55.314Z,18.90
2023-05-09T17:58:24.122Z,18.80
2023-05-09T18:00:55.314Z,18.80
2023-05-09T18:03:25.529Z,18.80
2023-05-09T18:05:53.143Z,18.70
2023-05-09T18:08:20.530Z,18.70
2023-05-09T18:10:47.935Z,18.60
2023-05-09T18:13:15.663Z,18.60
2023-05-09T18:15:43.727Z,18.60
2023-05-09T18:18:12.838Z,18.60
2023-05-09T18:20:42.455Z,18.60
2023-05-09T18:23:10.578Z,18.60
2023-05-09T18:25:38.874Z,18.50
2023-05-09T18:28:09.319Z,18.50
2023-05-09T18:30:36.906Z,18.50
2023-05-09T18:33:04.322Z,18.50
2023-05-09T18:35:32.701Z,18.50
2023-05-09T18:38:00.112Z,18.40
2023-05-09T18:40:28.089Z,18.40
2023-05-09T18:42:55.424Z,18.40
2023-05-09T18:45:23.387Z,18.40
2023-05-09T18:47:51.382Z,18.40
2023-05-09T18:50:19.153Z,18.40
2023-05-09T18:52:46.518Z,18.40
2023-05-09T18:55:15.116Z,18.40
2023-05-09T18:57:42.646Z,18.30
2023-05-09T19:00:10.287Z,18.20
2023-05-09T19:02:38.429Z,18.20
2023-05-09T19:05:08.005Z,18.20
2023-05-09T19:07:35.917Z,18.20
2023-05-09T19:10:04.713Z,18.10
2023-05-09T19:12:32.570Z,18.10
2023-05-09T19:15:00.156Z,18.10
2023-05-09T19:17:27.614Z,18.10
2023-05-09T19:19:54.972Z,18.10
2023-05-09T19:22:22.256Z,18.00
2023-05-09T19:24:51.651Z,18.00
2023-05-09T19:27:19.307Z,18.00
2023-05-09T19:29:49.302Z,17.90
2023-05-09T19:32:20.913Z,17.90
2023-05-09T19:34:48.256Z,17.90
2023-05-09T19:37:15.704Z,17.90
2023-05-09T19:39:43.227Z,17.90
2023-05-09T19:42:10.487Z,17.90
2023-05-09T19:44:39.400Z,17.90
2023-05-09T19:47:10.512Z,17.90
2023-05-09T19:49:38.609Z,17.90
2023-05-09T19:52:06.649Z,17.80
2023-05-09T19:54:34.032Z,17.80
2023-05-09T19:57:02.028Z,17.80
2023-05-09T19:59:29.582Z,17.70
2023-05-09T20:01:57.186Z,17.70
2023-05-09T20:04:24.843Z,17.70
2023-05-09T20:06:52.092Z,17.70
2023-05-09T20:09:21.126Z,17.60
2023-05-09T20:11:48.787Z,17.60
2023-05-09T20:14:16.292Z,17.60
2023-05-09T20:16:44.214Z,17.50
2023-05-09T20:19:14.497Z,17.50
2023-05-09T20:21:42.500Z,17.60
2023-05-09T20:24:10.076Z,17.60
2023-05-09T20:26:37.742Z,17.60
2023-05-09T20:29:05.048Z,17.60
2023-05-09T20:31:55.779Z,17.60
2023-05-09T20:34:24.732Z,17.60
2023-05-09T20:36:57.746Z,17.60
2023-05-09T20:39:25.109Z,17.60
2023-05-09T20:41:52.743Z,17.60
2023-05-09T20:44:20.088Z,17.60
2023-05-09T20:46:47.798Z,17.60
2023-05-09T20:49:16.618Z,17.60
2023-05-09T20:51:47.448Z,17.60
2023-05-09T20:54:17.950Z,17.60
2023-05-09T20:56:45.433Z,17.60
2023-05-09T20:59:13.263Z,17.60
2023-05-09T21:01:44.134Z,17.50
2023-05-09T21:04:26.983Z,17.50
2023-05-09T21:06:59.528Z,17.50
2023-05-09T21:09:30.190Z,17.50
2023-05-09T21:12:00.162Z,17.40
2023-05-09T21:14:27.367Z,17.40
2023-05-09T21:16:58.503Z,17.40
2023-05-09T21:19:26.130Z,17.40
2023-05-09T21:22:01.224Z,17.40
2023-05-09T21:24:28.615Z,17.40
2023-05-09T21:26:56.094Z,17.30
2023-05-09T21:29:26.679Z,17.30
2023-05-09T21:32:01.479Z,17.30
2023-05-09T21:34:46.038Z,17.20
2023-05-09T21:37:15.854Z,17.20
2023-05-09T21:39:43.170Z,17.20
2023-05-09T21:42:19.228Z,17.10
2023-05-09T21:44:46.672Z,17.10
2023-05-09T21:47:15.829Z,17.10
2023-05-09T21:52:44.480Z,17.10
2023-05-09T21:55:15.440Z,17.10
2023-05-09T21:57:42.666Z,17.10
2023-05-09T22:00:18.781Z,17.10
2023-05-09T22:03:28.345Z,17.00
2023-05-09T22:05:56.126Z,17.00
2023-05-09T22:08:28.332Z,17.00
2023-05-09T22:10:55.882Z,17.00
2023-05-09T22:13:23.425Z,17.00
2023-05-09T22:15:50.692Z,16.90
2023-05-09T22:18:18.032Z,16.90
2023-05-09T22:20:45.328Z,16.90
2023-05-09T22:23:12.651Z,16.80
2023-05-09T22:25:39.859Z,16.80
2023-05-09T22:28:07.186Z,16.80
2023-05-09T22:30:34.995Z,16.80
2023-05-09T22:33:02.811Z,16.70
2023-05-09T22:35:30.202Z,16.70
2023-05-09T22:37:57.548Z,16.70
2023-05-09T22:40:24.817Z,16.70
2023-05-09T22:42:53.586Z,16.70
2023-05-09T22:45:21.339Z,16.70
2023-05-09T22:47:48.864Z,16.70
2023-05-09T22:50:16.485Z,16.60
2023-05-09T22:52:43.965Z,16.60
2023-05-09T22:55:11.546Z,16.50
2023-05-09T22:57:40.462Z,16.50
2023-05-09T23:00:08.333Z,16.50
2023-05-09T23:02:35.795Z,16.40
2023-05-09T23:05:09.070Z,16.40
2023-05-09T23:07:36.434Z,16.30
2023-05-09T23:10:04.621Z,16.30
2023-05-09T23:12:31.916Z,16.30
2023-05-09T23:14:59.234Z,16.20
2023-05-09T23:17:26.712Z,16.20
2023-05-09T23:19:54.007Z,16.20
2023-05-09T23:22:21.397Z,16.20
2023-05-09T23:24:48.647Z,16.20
2023-05-09T23:27:16.006Z,16.10
2023-05-09T23:29:43.685Z,16.10
2023-05-09T23:32:11.703Z,16.10
2023-05-09T23:34:40.724Z,16.20
2023-05-09T23:37:08.670Z,16.10
2023-05-09T23:39:35.906Z,16.10
2023-05-09T23:42:04.310Z,16.10
2023-05-09T23:44:31.770Z,16.00
2023-05-09T23:46:59.166Z,16.00
2023-05-09T23:49:28.187Z,16.00
2023-05-09T23:51:55.543Z,16.00
2023-05-09T23:54:24.479Z,16.00
2023-05-09T23:56:52.119Z,16.00
2023-05-09T23:59:19.397Z,16.00
